sensor_id;sensor_type;location;lat;lon;timestamp;pressure;altitude;pressure_sealevel;temperature;humidity
29549;BME280;16487;53.094;8.800;2022-07-06T00:01:30;102280.19;;;14.74;100.00
29549;BME280;16487;53.094;8.800;2022-07-06T00:03:59;102288.09;;;14.79;100.00
29549;BME280;16487;53.094;8.800;2022-07-06T00:06:29;102290.13;;;14.78;100.00
29549;BME280;16487;53.094;8.800;2022-07-06T00:09:00;102298.09;;;14.80;100.00
29549;BME280;16487;53.094;8.800;2022-07-06T00:11:29;102292.78;;;14.85;100.00
29549;BME280;16487;53.094;8.800;2022-07-06T00:13:59;102284.69;;;14.87;100.00
29549;BME280;16487;53.094;8.800;2022-07-06T00:16:28;102294.78;;;14.85;100.00
29549;BME280;16487;53.094;8.800;2022-07-06T00:18:58;102287.94;;;14.86;100.00
29549;BME280;16487;53.094;8.800;2022-07-06T00:21:27;102296.44;;;14.82;100.00
29549;BME280;16487;53.094;8.800;2022-07-06T00:24:08;102294.06;;;14.81;100.00
29549;BME280;16487;53.094;8.800;2022-07-06T00:26:45;102288.53;;;14.77;100.00
29549;BME280;16487;53.094;8.800;2022-07-06T00:29:17;102283.56;;;14.85;100.00
29549;BME280;16487;53.094;8.800;2022-07-06T00:31:46;102288.66;;;14.90;100.00
29549;BME280;16487;53.094;8.800;2022-07-06T00:34:15;102286.38;;;14.85;100.00
29549;BME280;16487;53.094;8.800;2022-07-06T00:36:44;102287.09;;;14.89;100.00
29549;BME280;16487;53.094;8.800;2022-07-06T00:39:15;102292.34;;;14.87;100.00
29549;BME280;16487;53.094;8.800;2022-07-06T00:41:49;102293.25;;;14.80;100.00
29549;BME280;16487;53.094;8.800;2022-07-06T00:44:18;102289.09;;;14.88;100.00
29549;BME280;16487;53.094;8.800;2022-07-06T00:46:47;102287.41;;;14.91;100.00
29549;BME280;16487;53.094;8.800;2022-07-06T00:49:18;102280.06;;;14.97;100.00
29549;BME280;16487;53.094;8.800;2022-07-06T00:52:05;102275.34;;;14.94;100.00
29549;BME280;16487;53.094;8.800;2022-07-06T00:54:41;102288.44;;;14.81;100.00
29549;BME280;16487;53.094;8.800;2022-07-06T00:57:14;102286.28;;;14.88;100.00
29549;BME280;16487;53.094;8.800;2022-07-06T00:59:48;102280.22;;;14.90;100.00
29549;BME280;16487;53.094;8.800;2022-07-06T01:02:17;102277.06;;;14.88;100.00
29549;BME280;16487;53.094;8.800;2022-07-06T01:04:48;102286.66;;;14.90;100.00
29549;BME280;16487;53.094;8.800;2022-07-06T01:07:18;102286.28;;;14.88;100.00
29549;BME280;16487;53.094;8.800;2022-07-06T01:09:50;102287.34;;;14.94;100.00
29549;BME280;16487;53.094;8.800;2022-07-06T01:12:23;102291.47;;;14.90;100.00
29549;BME280;16487;53.094;8.800;2022-07-06T01:14:53;102294.78;;;14.85;100.00
29549;BME280;16487;53.094;8.800;2022-07-06T01:17:22;102296.72;;;14.88;100.00
29549;BME280;16487;53.094;8.800;2022-07-06T01:19:52;102282.59;;;14.91;100.00
29549;BME280;16487;53.094;8.800;2022-07-06T01:22:22;102282.16;;;14.93;100.00
29549;BME280;16487;53.094;8.800;2022-07-06T01:24:52;102286.66;;;14.90;100.00
29549;BME280;16487;53.094;8.800;2022-07-06T01:27:21;102280.22;;;14.90;100.00
29549;BME280;16487;53.094;8.800;2022-07-06T01:30:02;102277.78;;;14.92;100.00
29549;BME280;16487;53.094;8.800;2022-07-06T01:32:31;102277.78;;;14.92;100.00
29549;BME280;16487;53.094;8.800;2022-07-06T01:35:01;102275.06;;;14.88;100.00
29549;BME280;16487;53.094;8.800;2022-07-06T01:37:32;102285.13;;;14.86;100.00
29549;BME280;16487;53.094;8.800;2022-07-06T01:40:02;102276.34;;;14.84;100.00
29549;BME280;16487;53.094;8.800;2022-07-06T01:42:40;102271.44;;;14.88;100.00
29549;BME280;16487;53.094;8.800;2022-07-06T01:45:10;102273.38;;;14.91;100.00
29549;BME280;16487;53.094;8.800;2022-07-06T01:47:40;102273.03;;;14.89;100.00
29549;BME280;16487;53.094;8.800;2022-07-06T01:50:10;102267.84;;;14.87;100.00
29549;BME280;16487;53.094;8.800;2022-07-06T01:52:44;102274.78;;;14.83;100.00
29549;BME280;16487;53.094;8.800;2022-07-06T01:55:14;102273.22;;;14.82;100.00
29549;BME280;16487;53.094;8.800;2022-07-06T01:57:43;102273.22;;;14.82;100.00
29549;BME280;16487;53.094;8.800;2022-07-06T02:00:14;102277.81;;;14.72;100.00
29549;BME280;16487;53.094;8.800;2022-07-06T02:02:47;102275.72;;;14.76;100.00
29549;BME280;16487;53.094;8.800;2022-07-06T02:05:16;102271.41;;;14.72;100.00
29549;BME280;16487;53.094;8.800;2022-07-06T02:07:46;102275.09;;;14.69;100.00
29549;BME280;16487;53.094;8.800;2022-07-06T02:10:19;102279.50;;;14.70;100.00
29549;BME280;16487;53.094;8.800;2022-07-06T02:13:00;102271.06;;;14.70;100.00
29549;BME280;16487;53.094;8.800;2022-07-06T02:15:31;102277.09;;;14.68;100.00
29549;BME280;16487;53.094;8.800;2022-07-06T02:18:00;102280.63;;;14.72;100.00
29549;BME280;16487;53.094;8.800;2022-07-06T02:20:29;102265.38;;;14.73;100.00
29549;BME280;16487;53.094;8.800;2022-07-06T02:23:00;102280.69;;;14.69;100.00
29549;BME280;16487;53.094;8.800;2022-07-06T02:25:29;102274.66;;;14.70;100.00
29549;BME280;16487;53.094;8.800;2022-07-06T02:27:58;102267.91;;;14.68;100.00
29549;BME280;16487;53.094;8.800;2022-07-06T02:30:27;102262.13;;;14.75;100.00
29549;BME280;16487;53.094;8.800;2022-07-06T02:32:56;102272.63;;;14.71;100.00
29549;BME280;16487;53.094;8.800;2022-07-06T02:35:25;102275.97;;;14.66;100.00
29549;BME280;16487;53.094;8.800;2022-07-06T02:37:54;102269.56;;;14.65;100.00
29549;BME280;16487;53.094;8.800;2022-07-06T02:40:24;102272.34;;;14.65;100.00
29549;BME280;16487;53.094;8.800;2022-07-06T02:42:53;102274.03;;;14.63;100.00
29549;BME280;16487;53.094;8.800;2022-07-06T02:45:22;102280.84;;;14.62;100.00
29549;BME280;16487;53.094;8.800;2022-07-06T02:47:58;102271.31;;;14.59;100.00
29549;BME280;16487;53.094;8.800;2022-07-06T02:50:27;102274.53;;;14.58;100.00
29549;BME280;16487;53.094;8.800;2022-07-06T02:52:56;102278.56;;;14.57;100.00
29549;BME280;16487;53.094;8.800;2022-07-06T02:55:28;102272.94;;;14.57;100.00
29549;BME280;16487;53.094;8.800;2022-07-06T02:57:58;102274.88;;;14.60;100.00
29549;BME280;16487;53.094;8.800;2022-07-06T03:00:36;102281.88;;;14.52;100.00
29549;BME280;16487;53.094;8.800;2022-07-06T03:03:07;102295.03;;;14.55;100.00
29549;BME280;16487;53.094;8.800;2022-07-06T03:05:36;102292.94;;;14.59;100.00
29549;BME280;16487;53.094;8.800;2022-07-06T03:08:05;102288.22;;;14.56;100.00
29549;BME280;16487;53.094;8.800;2022-07-06T03:10:37;102288.47;;;14.61;100.00
29549;BME280;16487;53.094;8.800;2022-07-06T03:13:06;102285.78;;;14.58;100.00
29549;BME280;16487;53.094;8.800;2022-07-06T03:15:36;102292.22;;;14.55;100.00
29549;BME280;16487;53.094;8.800;2022-07-06T03:18:05;102298.72;;;14.52;100.00
29549;BME280;16487;53.094;8.800;2022-07-06T03:20:35;102296.28;;;14.54;100.00
29549;BME280;16487;53.094;8.800;2022-07-06T03:23:13;102301.50;;;14.52;100.00
29549;BME280;16487;53.094;8.800;2022-07-06T03:25:44;102294.97;;;14.58;100.00
29549;BME280;16487;53.094;8.800;2022-07-06T03:28:16;102295.75;;;14.59;100.00
29549;BME280;16487;53.094;8.800;2022-07-06T03:30:47;102289.34;;;14.58;100.00
29549;BME280;16487;53.094;8.800;2022-07-06T03:33:16;102308.28;;;14.54;100.00
29549;BME280;16487;53.094;8.800;2022-07-06T03:35:48;102297.91;;;14.51;100.00
29549;BME280;16487;53.094;8.800;2022-07-06T03:38:16;102301.38;;;14.59;100.00
29549;BME280;16487;53.094;8.800;2022-07-06T03:40:48;102295.31;;;14.60;100.00
29549;BME280;16487;53.094;8.800;2022-07-06T03:43:17;102291.63;;;14.63;100.00
29549;BME280;16487;53.094;8.800;2022-07-06T03:45:49;102292.72;;;14.69;100.00
29549;BME280;16487;53.094;8.800;2022-07-06T03:48:19;102294.38;;;14.67;100.00
29549;BME280;16487;53.094;8.800;2022-07-06T03:51:05;102292.22;;;14.74;100.00
29549;BME280;16487;53.094;8.800;2022-07-06T03:53:34;102295.91;;;14.71;100.00
29549;BME280;16487;53.094;8.800;2022-07-06T03:56:05;102286.16;;;14.76;100.00
29549;BME280;16487;53.094;8.800;2022-07-06T03:58:52;102295.38;;;14.76;100.00
29549;BME280;16487;53.094;8.800;2022-07-06T04:01:21;102289.84;;;14.73;100.00
29549;BME280;16487;53.094;8.800;2022-07-06T04:03:52;102288.97;;;14.76;100.00
29549;BME280;16487;53.094;8.800;2022-07-06T04:06:25;102291.50;;;14.70;100.00
29549;BME280;16487;53.094;8.800;2022-07-06T04:08:55;102290.34;;;14.68;100.00
29549;BME280;16487;53.094;8.800;2022-07-06T04:11:25;102298.63;;;14.75;100.00
29549;BME280;16487;53.094;8.800;2022-07-06T04:13:59;102294.22;;;14.74;100.00
29549;BME280;16487;53.094;8.800;2022-07-06T04:16:29;102297.53;;;14.69;100.00
29549;BME280;16487;53.094;8.800;2022-07-06T04:18:58;102298.72;;;14.87;100.00
29549;BME280;16487;53.094;8.800;2022-07-06T04:21:28;102296.94;;;14.77;100.00
29549;BME280;16487;53.094;8.800;2022-07-06T04:23:58;102301.59;;;14.84;100.00
29549;BME280;16487;53.094;8.800;2022-07-06T04:26:29;102304.41;;;14.84;100.00
29549;BME280;16487;53.094;8.800;2022-07-06T04:28:58;102302.28;;;14.72;100.00
29549;BME280;16487;53.094;8.800;2022-07-06T04:31:28;102295.66;;;14.82;100.00
29549;BME280;16487;53.094;8.800;2022-07-06T04:34:15;102290.59;;;14.93;100.00
29549;BME280;16487;53.094;8.800;2022-07-06T04:36:45;102292.03;;;15.01;100.00
29549;BME280;16487;53.094;8.800;2022-07-06T04:39:13;102298.72;;;14.87;100.00
29549;BME280;16487;53.094;8.800;2022-07-06T04:41:45;102289.13;;;15.05;100.00
29549;BME280;16487;53.094;8.800;2022-07-06T04:44:14;102297.81;;;15.10;100.00
29549;BME280;16487;53.094;8.800;2022-07-06T04:46:43;102294.38;;;15.03;100.00
29549;BME280;16487;53.094;8.800;2022-07-06T04:49:15;102292.38;;;15.19;100.00
29549;BME280;16487;53.094;8.800;2022-07-06T04:51:44;102285.00;;;15.09;100.00
29549;BME280;16487;53.094;8.800;2022-07-06T04:54:13;102291.75;;;15.12;100.00
29549;BME280;16487;53.094;8.800;2022-07-06T04:56:42;102292.81;;;15.18;100.00
29549;BME280;16487;53.094;8.800;2022-07-06T04:59:14;102295.00;;;15.10;100.00
29549;BME280;16487;53.094;8.800;2022-07-06T05:01:45;102290.47;;;15.16;100.00
29549;BME280;16487;53.094;8.800;2022-07-06T05:04:14;102290.72;;;15.22;100.00
29549;BME280;16487;53.094;8.800;2022-07-06T05:06:46;102289.31;;;15.30;100.00
29549;BME280;16487;53.094;8.800;2022-07-06T05:09:16;102291.91;;;15.40;100.00
29549;BME280;16487;53.094;8.800;2022-07-06T05:11:46;102288.69;;;15.38;100.00
29549;BME280;16487;53.094;8.800;2022-07-06T05:14:18;102294.09;;;15.49;100.00
29549;BME280;16487;53.094;8.800;2022-07-06T05:16:48;102291.81;;;15.44;100.00
29549;BME280;16487;53.094;8.800;2022-07-06T05:19:18;102294.91;;;15.49;100.00
29549;BME280;16487;53.094;8.800;2022-07-06T05:21:48;102291.81;;;15.60;100.00
29549;BME280;16487;53.094;8.800;2022-07-06T05:24:18;102297.09;;;15.58;100.00
29549;BME280;16487;53.094;8.800;2022-07-06T05:26:47;102291.47;;;15.58;100.00
29549;BME280;16487;53.094;8.800;2022-07-06T05:29:30;102290.31;;;15.71;100.00
29549;BME280;16487;53.094;8.800;2022-07-06T05:32:09;102287.03;;;15.73;100.00
29549;BME280;16487;53.094;8.800;2022-07-06T05:34:38;102290.47;;;15.80;100.00
29549;BME280;16487;53.094;8.800;2022-07-06T05:37:07;102289.03;;;15.88;100.00
29549;BME280;16487;53.094;8.800;2022-07-06T05:39:36;102289.00;;;16.04;100.00
29549;BME280;16487;53.094;8.800;2022-07-06T05:42:10;102289.38;;;15.90;100.00
29549;BME280;16487;53.094;8.800;2022-07-06T05:44:46;102291.13;;;16.00;100.00
29549;BME280;16487;53.094;8.800;2022-07-06T05:47:15;102296.94;;;15.93;100.00
29549;BME280;16487;53.094;8.800;2022-07-06T05:50:02;102309.59;;;16.01;100.00
29549;BME280;16487;53.094;8.800;2022-07-06T05:52:56;102305.16;;;16.17;100.00
29549;BME280;16487;53.094;8.800;2022-07-06T05:55:33;102306.91;;;16.11;100.00
29549;BME280;16487;53.094;8.800;2022-07-06T05:58:03;102312.25;;;16.21;100.00
29549;BME280;16487;53.094;8.800;2022-07-06T06:00:35;102305.16;;;16.17;100.00
29549;BME280;16487;53.094;8.800;2022-07-06T06:03:11;102298.38;;;16.14;100.00
29549;BME280;16487;53.094;8.800;2022-07-06T06:05:41;102314.91;;;16.12;100.00
29549;BME280;16487;53.094;8.800;2022-07-06T06:08:17;102326.66;;;16.23;100.00
29549;BME280;16487;53.094;8.800;2022-07-06T06:10:46;102311.47;;;16.21;100.00
29549;BME280;16487;53.094;8.800;2022-07-06T06:13:21;102315.41;;;15.94;100.00
29549;BME280;16487;53.094;8.800;2022-07-06T06:15:53;102313.44;;;16.08;100.00
29549;BME280;16487;53.094;8.800;2022-07-06T06:18:29;102319.47;;;16.22;100.00
29549;BME280;16487;53.094;8.800;2022-07-06T06:21:06;102311.84;;;16.35;100.00
29549;BME280;16487;53.094;8.800;2022-07-06T06:23:44;102315.38;;;16.39;100.00
29549;BME280;16487;53.094;8.800;2022-07-06T06:26:13;102324.31;;;16.50;100.00
29549;BME280;16487;53.094;8.800;2022-07-06T06:28:42;102321.09;;;16.36;100.00
29549;BME280;16487;53.094;8.800;2022-07-06T06:31:16;102321.88;;;16.65;100.00
29549;BME280;16487;53.094;8.800;2022-07-06T06:33:45;102313.22;;;16.72;100.00
29549;BME280;16487;53.094;8.800;2022-07-06T06:36:14;102325.28;;;16.72;100.00
29549;BME280;16487;53.094;8.800;2022-07-06T06:38:43;102315.44;;;16.64;100.00
29549;BME280;16487;53.094;8.800;2022-07-06T06:41:12;102316.41;;;16.74;100.00
29549;BME280;16487;53.094;8.800;2022-07-06T06:43:41;102313.88;;;16.63;100.00
29549;BME280;16487;53.094;8.800;2022-07-06T06:46:19;102315.97;;;16.88;100.00
29549;BME280;16487;53.094;8.800;2022-07-06T06:48:56;102313.44;;;16.65;100.00
29549;BME280;16487;53.094;8.800;2022-07-06T06:51:26;102310.34;;;16.88;100.00
29549;BME280;16487;53.094;8.800;2022-07-06T06:53:57;102310.78;;;16.99;100.00
29549;BME280;16487;53.094;8.800;2022-07-06T06:56:26;102316.63;;;16.92;100.00
29549;BME280;16487;53.094;8.800;2022-07-06T06:58:58;102317.22;;;16.99;100.00
29549;BME280;16487;53.094;8.800;2022-07-06T07:01:46;102319.38;;;17.21;100.00
29549;BME280;16487;53.094;8.800;2022-07-06T07:04:22;102331.31;;;17.25;100.00
29549;BME280;16487;53.094;8.800;2022-07-06T07:06:51;102319.94;;;17.15;100.00
29549;BME280;16487;53.094;8.800;2022-07-06T07:09:21;102317.22;;;17.25;100.00
29549;BME280;16487;53.094;8.800;2022-07-06T07:11:50;102331.19;;;17.28;100.00
29549;BME280;16487;53.094;8.800;2022-07-06T07:14:19;102328.94;;;17.36;100.00
29549;BME280;16487;53.094;8.800;2022-07-06T07:16:49;102334.00;;;17.41;100.00
29549;BME280;16487;53.094;8.800;2022-07-06T07:19:18;102330.53;;;17.49;100.00
29549;BME280;16487;53.094;8.800;2022-07-06T07:21:47;102336.16;;;17.62;100.00
29549;BME280;16487;53.094;8.800;2022-07-06T07:24:16;102336.72;;;17.69;100.00
29549;BME280;16487;53.094;8.800;2022-07-06T07:26:45;102346.38;;;17.93;100.00
29549;BME280;16487;53.094;8.800;2022-07-06T07:29:14;102341.69;;;17.65;100.00
29549;BME280;16487;53.094;8.800;2022-07-06T07:31:43;102349.16;;;17.47;100.00
29549;BME280;16487;53.094;8.800;2022-07-06T07:34:13;102348.66;;;17.73;100.00
29549;BME280;16487;53.094;8.800;2022-07-06T07:36:42;102361.66;;;17.58;100.00
29549;BME280;16487;53.094;8.800;2022-07-06T07:39:15;102362.22;;;17.53;100.00
29549;BME280;16487;53.094;8.800;2022-07-06T07:41:43;102359.75;;;17.55;100.00
29549;BME280;16487;53.094;8.800;2022-07-06T07:44:21;102352.84;;;17.56;100.00
29549;BME280;16487;53.094;8.800;2022-07-06T07:46:50;102358.38;;;17.47;100.00
29549;BME280;16487;53.094;8.800;2022-07-06T07:49:21;102358.59;;;17.40;100.00
29549;BME280;16487;53.094;8.800;2022-07-06T07:51:51;102358.72;;;17.49;100.00
29549;BME280;16487;53.094;8.800;2022-07-06T07:54:20;102360.84;;;17.45;100.00
29549;BME280;16487;53.094;8.800;2022-07-06T07:56:49;102356.69;;;17.25;100.00
29549;BME280;16487;53.094;8.800;2022-07-06T07:59:18;102358.50;;;17.69;100.00
29549;BME280;16487;53.094;8.800;2022-07-06T08:01:47;102368.50;;;17.82;100.00
29549;BME280;16487;53.094;8.800;2022-07-06T08:04:17;102356.94;;;17.68;100.00
29549;BME280;16487;53.094;8.800;2022-07-06T08:06:48;102359.41;;;17.66;100.00
29549;BME280;16487;53.094;8.800;2022-07-06T08:09:17;102349.28;;;18.02;100.00
29549;BME280;16487;53.094;8.800;2022-07-06T08:11:47;102349.28;;;18.37;100.00
29549;BME280;16487;53.094;8.800;2022-07-06T08:14:15;102346.19;;;18.09;100.00
29549;BME280;16487;53.094;8.800;2022-07-06T08:16:48;102347.00;;;18.44;100.00
29549;BME280;16487;53.094;8.800;2022-07-06T08:19:18;102337.41;;;18.85;100.00
29549;BME280;16487;53.094;8.800;2022-07-06T08:21:49;102341.88;;;18.52;100.00
29549;BME280;16487;53.094;8.800;2022-07-06T08:24:17;102349.81;;;18.10;100.00
29549;BME280;16487;53.094;8.800;2022-07-06T08:26:48;102338.59;;;18.75;100.00
29549;BME280;16487;53.094;8.800;2022-07-06T08:29:17;102336.72;;;18.81;100.00
29549;BME280;16487;53.094;8.800;2022-07-06T08:31:46;102346.47;;;18.58;100.00
29549;BME280;16487;53.094;8.800;2022-07-06T08:34:25;102347.84;;;18.75;100.00
29549;BME280;16487;53.094;8.800;2022-07-06T08:37:02;102347.13;;;18.84;100.00
29549;BME280;16487;53.094;8.800;2022-07-06T08:39:37;102345.41;;;19.17;100.00
29549;BME280;16487;53.094;8.800;2022-07-06T08:42:07;102344.13;;;19.97;100.00
29549;BME280;16487;53.094;8.800;2022-07-06T08:44:37;102338.59;;;19.94;100.00
29549;BME280;16487;53.094;8.800;2022-07-06T08:47:06;102340.69;;;19.45;100.00
29549;BME280;16487;53.094;8.800;2022-07-06T08:49:40;102344.19;;;19.58;100.00
29549;BME280;16487;53.094;8.800;2022-07-06T08:52:14;102349.00;;;19.39;100.00
29549;BME280;16487;53.094;8.800;2022-07-06T08:54:44;102349.97;;;19.14;100.00
29549;BME280;16487;53.094;8.800;2022-07-06T08:57:14;102347.19;;;19.23;100.00
29549;BME280;16487;53.094;8.800;2022-07-06T08:59:43;102347.19;;;19.63;100.00
29549;BME280;16487;53.094;8.800;2022-07-06T09:02:27;102348.66;;;19.86;100.00
29549;BME280;16487;53.094;8.800;2022-07-06T09:04:56;102342.88;;;19.89;100.00
29549;BME280;16487;53.094;8.800;2022-07-06T09:07:35;102338.81;;;20.17;100.00
29549;BME280;16487;53.094;8.800;2022-07-06T09:10:24;102339.44;;;20.03;100.00
29549;BME280;16487;53.094;8.800;2022-07-06T09:13:02;102341.88;;;19.74;100.00
29549;BME280;16487;53.094;8.800;2022-07-06T09:15:32;102345.91;;;20.31;100.00
29549;BME280;16487;53.094;8.800;2022-07-06T09:18:04;102343.09;;;19.64;100.00
29549;BME280;16487;53.094;8.800;2022-07-06T09:20:34;102344.38;;;19.63;100.00
29549;BME280;16487;53.094;8.800;2022-07-06T09:23:05;102344.91;;;19.40;100.00
29549;BME280;16487;53.094;8.800;2022-07-06T09:25:40;102343.03;;;19.37;100.00
29549;BME280;16487;53.094;8.800;2022-07-06T09:28:09;102337.75;;;19.57;100.00
29549;BME280;16487;53.094;8.800;2022-07-06T09:30:38;102341.97;;;19.53;100.00
29549;BME280;16487;53.094;8.800;2022-07-06T09:33:08;102342.69;;;19.35;100.00
29549;BME280;16487;53.094;8.800;2022-07-06T09:35:38;102343.44;;;18.96;100.00
29549;BME280;16487;53.094;8.800;2022-07-06T09:38:11;102352.31;;;19.16;100.00
29549;BME280;16487;53.094;8.800;2022-07-06T09:40:43;102352.78;;;19.45;100.00
29549;BME280;16487;53.094;8.800;2022-07-06T09:43:16;102353.72;;;19.42;100.00
29549;BME280;16487;53.094;8.800;2022-07-06T09:45:48;102354.44;;;19.73;100.00
29549;BME280;16487;53.094;8.800;2022-07-06T09:48:22;102345.00;;;19.58;100.00
29549;BME280;16487;53.094;8.800;2022-07-06T09:50:54;102350.91;;;19.42;100.00
29549;BME280;16487;53.094;8.800;2022-07-06T09:53:26;102354.22;;;19.50;100.00
29549;BME280;16487;53.094;8.800;2022-07-06T09:55:57;102351.31;;;19.80;100.00
29549;BME280;16487;53.094;8.800;2022-07-06T09:58:26;102349.53;;;20.59;100.00
29549;BME280;16487;53.094;8.800;2022-07-06T10:01:25;102346.69;;;20.59;100.00
29549;BME280;16487;53.094;8.800;2022-07-06T10:04:05;102347.53;;;20.92;100.00
29549;BME280;16487;53.094;8.800;2022-07-06T10:06:34;102356.84;;;21.10;100.00
29549;BME280;16487;53.094;8.800;2022-07-06T10:09:07;102349.22;;;21.58;100.00
29549;BME280;16487;53.094;8.800;2022-07-06T10:11:42;102355.97;;;21.93;100.00
29549;BME280;16487;53.094;8.800;2022-07-06T10:14:15;102347.75;;;21.95;100.00
29549;BME280;16487;53.094;8.800;2022-07-06T10:16:46;102350.91;;;21.97;100.00
29549;BME280;16487;53.094;8.800;2022-07-06T10:19:16;102334.94;;;22.38;100.00
29549;BME280;16487;53.094;8.800;2022-07-06T10:21:45;102362.44;;;21.94;100.00
29549;BME280;16487;53.094;8.800;2022-07-06T10:24:17;102340.50;;;22.70;100.00
29549;BME280;16487;53.094;8.800;2022-07-06T10:27:02;102331.09;;;22.79;100.00
29549;BME280;16487;53.094;8.800;2022-07-06T10:29:31;102329.69;;;22.45;100.00
29549;BME280;16487;53.094;8.800;2022-07-06T10:32:01;102336.00;;;21.55;100.00
29549;BME280;16487;53.094;8.800;2022-07-06T10:34:30;102352.28;;;21.04;100.00
29549;BME280;16487;53.094;8.800;2022-07-06T10:36:59;102343.19;;;20.73;100.00
29549;BME280;16487;53.094;8.800;2022-07-06T10:39:35;102352.97;;;21.64;100.00
29549;BME280;16487;53.094;8.800;2022-07-06T10:42:44;102340.97;;;21.69;100.00
29549;BME280;16487;53.094;8.800;2022-07-06T10:45:22;102346.03;;;20.73;100.00
29549;BME280;16487;53.094;8.800;2022-07-06T10:48:16;102345.25;;;20.18;100.00
29549;BME280;16487;53.094;8.800;2022-07-06T10:50:47;102343.84;;;19.47;100.00
29549;BME280;16487;53.094;8.800;2022-07-06T10:53:20;102353.25;;;20.10;100.00
29549;BME280;16487;53.094;8.800;2022-07-06T10:55:52;102355.72;;;19.72;100.00
29549;BME280;16487;53.094;8.800;2022-07-06T10:58:41;102345.75;;;20.16;100.00
29549;BME280;16487;53.094;8.800;2022-07-06T11:01:10;102340.31;;;19.91;100.00
29549;BME280;16487;53.094;8.800;2022-07-06T11:03:43;102350.00;;;20.48;100.00
29549;BME280;16487;53.094;8.800;2022-07-06T11:06:15;102353.25;;;20.01;100.00
29549;BME280;16487;53.094;8.800;2022-07-06T11:08:49;102354.94;;;19.72;100.00
29549;BME280;16487;53.094;8.800;2022-07-06T11:11:23;102349.50;;;19.47;100.00
29549;BME280;16487;53.094;8.800;2022-07-06T11:13:58;102344.22;;;19.76;100.00
29549;BME280;16487;53.094;8.800;2022-07-06T11:16:31;102355.38;;;19.61;100.00
29549;BME280;16487;53.094;8.800;2022-07-06T11:19:06;102340.66;;;19.84;100.00
29549;BME280;16487;53.094;8.800;2022-07-06T11:21:37;102339.94;;;19.62;100.00
29549;BME280;16487;53.094;8.800;2022-07-06T11:24:09;102344.25;;;19.85;100.00
29549;BME280;16487;53.094;8.800;2022-07-06T11:26:41;102356.09;;;19.44;100.00
29549;BME280;16487;53.094;8.800;2022-07-06T11:29:11;102353.34;;;19.80;100.00
29549;BME280;16487;53.094;8.800;2022-07-06T11:31:42;102332.47;;;19.86;100.00
29549;BME280;16487;53.094;8.800;2022-07-06T11:34:12;102345.69;;;20.07;100.00
29549;BME280;16487;53.094;8.800;2022-07-06T11:36:41;102348.47;;;19.71;100.00
29549;BME280;16487;53.094;8.800;2022-07-06T11:39:13;102355.44;;;19.97;100.00
29549;BME280;16487;53.094;8.800;2022-07-06T11:41:43;102337.06;;;21.25;100.00
29549;BME280;16487;53.094;8.800;2022-07-06T11:44:18;102328.38;;;22.70;100.00
29549;BME280;16487;53.094;8.800;2022-07-06T11:46:47;102328.31;;;23.14;100.00
29549;BME280;16487;53.094;8.800;2022-07-06T11:49:16;102327.75;;;22.81;100.00
29549;BME280;16487;53.094;8.800;2022-07-06T11:51:46;102312.59;;;24.28;100.00
29549;BME280;16487;53.094;8.800;2022-07-06T11:54:16;102311.41;;;24.14;100.00
29549;BME280;16487;53.094;8.800;2022-07-06T11:56:48;102299.31;;;24.19;100.00
29549;BME280;16487;53.094;8.800;2022-07-06T11:59:23;102301.25;;;24.79;100.00
29549;BME280;16487;53.094;8.800;2022-07-06T12:01:58;102299.44;;;24.56;100.00
29549;BME280;16487;53.094;8.800;2022-07-06T12:04:27;102300.09;;;24.45;100.00
29549;BME280;16487;53.094;8.800;2022-07-06T12:07:00;102296.03;;;23.66;100.00
29549;BME280;16487;53.094;8.800;2022-07-06T12:09:30;102304.16;;;23.24;100.00
29549;BME280;16487;53.094;8.800;2022-07-06T12:12:01;102304.59;;;22.44;100.00
29549;BME280;16487;53.094;8.800;2022-07-06T12:14:32;102303.50;;;22.03;100.00
29549;BME280;16487;53.094;8.800;2022-07-06T12:17:03;102293.63;;;23.10;100.00
29549;BME280;16487;53.094;8.800;2022-07-06T12:19:33;102291.88;;;23.47;100.00
29549;BME280;16487;53.094;8.800;2022-07-06T12:22:03;102299.31;;;22.81;100.00
29549;BME280;16487;53.094;8.800;2022-07-06T12:24:34;102291.47;;;22.76;100.00
29549;BME280;16487;53.094;8.800;2022-07-06T12:27:13;102298.91;;;22.88;100.00
29549;BME280;16487;53.094;8.800;2022-07-06T12:29:48;102299.44;;;22.04;100.00
29549;BME280;16487;53.094;8.800;2022-07-06T12:32:19;102301.03;;;21.73;100.00
29549;BME280;16487;53.094;8.800;2022-07-06T12:35:02;102297.59;;;21.92;100.00
29549;BME280;16487;53.094;8.800;2022-07-06T12:37:31;102293.44;;;22.02;100.00
29549;BME280;16487;53.094;8.800;2022-07-06T12:40:00;102286.25;;;23.32;100.00
29549;BME280;16487;53.094;8.800;2022-07-06T12:42:31;102276.19;;;24.37;100.00
29549;BME280;16487;53.094;8.800;2022-07-06T12:45:01;102294.53;;;24.31;100.00
29549;BME280;16487;53.094;8.800;2022-07-06T12:47:30;102270.25;;;23.55;100.00
29549;BME280;16487;53.094;8.800;2022-07-06T12:50:07;102277.56;;;24.22;100.00
29549;BME280;16487;53.094;8.800;2022-07-06T12:52:37;102263.19;;;24.31;100.00
29549;BME280;16487;53.094;8.800;2022-07-06T12:55:08;102266.34;;;24.89;100.00
29549;BME280;16487;53.094;8.800;2022-07-06T12:57:45;102278.28;;;24.93;100.00
29549;BME280;16487;53.094;8.800;2022-07-06T13:00:16;102260.31;;;25.55;100.00
29549;BME280;16487;53.094;8.800;2022-07-06T13:02:47;102256.72;;;25.24;100.00
29549;BME280;16487;53.094;8.800;2022-07-06T13:05:35;102249.66;;;25.14;100.00